Cytokinetics Inc (NASDAQ:CYTK)

CAPS Rating: 3 out of 5

A biopharmaceutical company, focused on developing small molecule therapeutics for the treatment of cardiovascular diseases and cancer.

Results 1 - 99 of 192 : 1 2 Next »
Top
Pick
Member Name Member
Rating
Start
Date
Call Time
Frame
Start
Price
Stock
Gain
Index
Gain
Score Commentary
OttoBismarck 99.90 3/3/2015 Underperform 5Y $7.87 +0.51% -0.48% -0.99 0 Comment
icewater3 94.16 2/17/2015 Outperform 1Y $8.30 -4.70% +0.30% -5.00 0 Comment
karakartal 27.32 2/13/2015 Outperform 5Y $7.86 +0.64% +0.48% +0.16 0 Comment
vrpaul 71.83 1/21/2015 Outperform 5Y $7.26 +9.03% +3.96% +5.07 0 Comment
This player feels very strongly about this pick and has marked it a Top Pick. Top Picks do not affect a player’s score. skyrocket29 59.42 12/26/2014 Outperform 1Y $6.46 +22.45% +0.89% +21.56 0 Comment
dflo 84.32 12/5/2014 Outperform 5Y $4.57 +73.09% +1.25% +71.84 0 Comment
Playa14 < 20 11/28/2014 Outperform 5Y $4.58 +72.71% +1.43% +71.28 0 Comment
cthomas1017 94.76 11/18/2014 Underperform 5Y $4.11 +92.46% +2.94% -89.51 0 Comment
flemishinvestor < 20 11/18/2014 Outperform 3Y $4.21 +87.89% +2.52% +85.37 0 Comment
MacroHedge 93.58 11/7/2014 Outperform 5Y $4.11 +92.46% +3.56% +88.90 0 Comment
hayrettin 70.24 10/13/2014 Outperform 5Y $3.37 +134.72% +10.75% +123.97 0 Comment
ptanabe 90.64 9/9/2014 Outperform 5Y $3.67 +115.38% +5.18% +110.20 1 Comment
GyroDynasty 98.51 7/21/2014 Outperform 5Y $4.25 +86.12% +6.78% +79.33 0 Comment
OKwarrior 38.82 6/6/2014 Outperform 5Y $4.88 +62.09% +8.00% +54.09 1 Comment
ArmyRob 74.60 5/7/2014 Underperform 5Y $4.14 +91.06% +12.23% -78.83 0 Comment
AsianMatter < 20 4/28/2014 Outperform 3W $4.58 +72.71% +12.52% +60.19 0 Comment
portefeuille2 99.79 4/25/2014 Outperform 5Y $4.91 +61.26% +12.80% +48.47 0 Comment
peregrine 99.36 4/25/2014 Outperform 5Y $5.07 +56.02% +13.10% +42.92 0 Comment
portefeuille 99.73 4/16/2014 Outperform 5Y $8.95 -11.62% +13.47% -25.09 0 Comment
TerryFool 76.72 4/15/2014 Outperform 5Y $8.94 -11.52% +15.56% -27.08 1 Comment
TerryHoodSr 75.92 4/15/2014 Outperform 5Y $8.94 -11.52% +14.84% -26.36 1 Comment
msb09 27.87 4/2/2014 Outperform 3M $9.79 -19.20% +11.65% -30.85 0 Comment
IVolStrategy < 20 3/26/2014 Outperform 1Y $9.02 -12.31% +12.53% -24.83 0 Comment
BioForcePicks1 85.93 3/25/2014 Outperform 3M $8.94 -11.52% +13.07% -24.59 0 Comment
Dmaral < 20 2/27/2014 Outperform 5Y $10.31 -23.28% +13.59% -36.87 0 Comment
This player feels very strongly about this pick and has marked it a Top Pick. Top Picks do not affect a player’s score. s2dbaker 92.14 1/10/2014 Outperform 5Y $9.22 -14.21% +14.61% -28.82 1 Comment
flypower 99.46 1/7/2014 Outperform 5Y $7.30 +8.36% +14.95% -6.59 0 Comment
HoosierDoozer < 20 12/23/2013 Outperform 5Y $6.60 +19.85% +15.29% +4.56 0 Comment
grahamfordummies 72.20 8/8/2013 12/4/2013 Outperform 3Y $10.21 -22.53% +23.81% -46.34 1 Comment
cavemantrader 65.92 11/7/2013 Outperform 5Y $6.33 +24.96% +20.28% +4.68 0 Comment
mandynshane < 20 10/8/2013 Outperform NS $6.69 +18.24% +26.20% -7.96 0 Comment
ImFive 40.86 10/7/2013 Outperform 5Y $7.03 +12.52% +25.71% -13.19 0 Comment
ralonsot < 20 10/2/2013 Outperform 5Y $7.38 +7.18% +24.67% -17.49 0 Comment
withoutDoubt 21.78 9/5/2013 Outperform 5Y $8.32 -4.98% +26.69% -31.68 0 Comment
fatmoneyrz 99.31 9/3/2013 Outperform 5Y $7.79 +1.54% +27.33% -25.79 0 Comment
KidJones 98.83 9/3/2013 Outperform 5Y $8.62 -8.24% +27.37% -35.61 0 Comment
Greeniesnack 53.94 8/23/2013 Outperform 5Y $11.11 -28.80% +26.36% -55.17 0 Comment
FoolPep 32.91 8/22/2013 Outperform 3M $11.60 -31.81% +27.63% -59.44 0 Comment
SCOTTRHUETTLCPA 65.71 8/19/2013 Underperform 3W $10.18 -22.30% +27.41% +49.71 0 Comment
rknapton < 20 8/7/2013 Underperform 5Y $10.55 -25.02% +24.39% +49.42 1 Comment
ababrmon 99.08 7/31/2013 Outperform 3M $12.47 -36.57% +24.77% -61.34 0 Comment
efarev 99.55 2/4/2011 7/26/2013 Outperform 5Y $11.16 -29.12% +60.83% -89.95 0 Comment
ronmcpeek < 20 7/19/2013 Outperform 5Y $13.43 -41.10% +24.89% -65.99 0 Comment
TMFEZMagic 25.00 7/15/2013 Underperform 5Y $13.76 -42.51% +25.33% +67.85 0 Comment
batman35 40.88 7/12/2013 Outperform 1Y $13.60 -41.84% +25.65% -67.49 0 Comment
kaletbaldrich27 < 20 7/10/2013 Outperform 1Y $13.30 -40.53% +27.70% -68.23 1 Comment
OriginalBarnacle 64.81 7/1/2013 Underperform 1Y $11.58 -31.69% +30.51% +62.20 0 Comment
Jsams82 < 20 7/1/2013 Outperform 1Y $11.58 -31.69% +30.51% -62.20 0 Comment
JJ68 < 20 6/26/2013 Outperform 5Y $12.10 -34.66% +31.87% -66.52 0 Comment
ytryan 45.70 6/19/2013 Outperform 5Y $11.28 -29.88% +27.81% -57.69 0 Comment
Scraming < 20 6/19/2013 Outperform 3M $11.58 -31.69% +27.14% -58.84 0 Comment
saab93boi 21.77 6/18/2013 Underperform 5Y $11.10 -28.74% +26.86% +55.60 0 Comment
shonny2 < 20 5/22/2013 Outperform 5Y $6.90 +14.65% +25.53% -10.88 0 Comment
mcdbenbe 30.67 2/19/2013 Outperform 5Y $6.24 +26.76% +38.12% -11.36 0 Comment
ava5147 < 20 2/19/2013 Outperform 1Y $6.24 +26.76% +38.12% -11.36 0 Comment
montys3 35.68 1/22/2013 Outperform 5Y $5.99 +32.14% +41.40% -9.26 0 Comment
Spyrig < 20 12/17/2012 Outperform 5Y $4.02 +96.77% +47.72% +49.04 0 Comment
mdrnsamurai < 20 12/12/2012 Outperform 5Y $4.29 +84.38% +46.15% +38.23 0 Comment
danculbertson 74.04 10/15/2012 Outperform 3M $4.41 +79.37% +46.49% +32.88 0 Comment
millerto 61.61 8/31/2012 Outperform 1Y $4.58 +72.81% +49.33% +23.48 0 Comment
IdahoInvestor 29.06 8/8/2012 Underperform 5Y $4.00 +97.71% +49.78% -47.93 0 Comment
iadops40 58.68 7/13/2012 Outperform 1Y $4.02 +96.77% +57.22% +39.54 0 Comment
THERULERGOD < 20 7/11/2012 Outperform 5Y $4.26 +85.68% +56.81% +28.87 0 Comment
greentah 60.02 7/9/2012 Outperform 5Y $4.32 +83.10% +55.46% +27.64 0 Comment
HongHue 54.13 7/6/2012 Outperform 1Y $3.90 +102.82% +55.36% +47.47 0 Comment
Harlequinvestor 41.99 6/18/2012 Outperform 1Y $5.16 +53.29% +57.55% -4.26 0 Comment
ConradMike55 < 20 5/10/2012 Outperform 3W $5.58 +41.76% +53.98% -12.22 0 Comment
Arsenal1860 < 20 5/10/2012 Outperform 5Y $5.58 +41.76% +53.98% -12.22 0 Comment
MythQuinn 84.15 5/8/2012 Outperform 3Y $5.52 +43.30% +54.16% -10.86 0 Comment
stainsolution 73.64 5/8/2012 Outperform 5Y $5.70 +38.77% +54.43% -15.66 0 Comment
foolbull12 < 20 5/8/2012 Outperform 5Y $5.52 +43.30% +54.60% -11.31 0 Comment
RBuskey106 60.71 3/15/2012 Outperform 5Y $7.14 +10.78% +49.72% -38.93 1 Comment
TechSci 27.36 3/6/2012 Outperform 5Y $6.54 +20.95% +55.95% -35.01 0 Comment
mhy729 29.98 2/17/2011 2/13/2012 Outperform 1Y $9.18 -13.81% +57.41% -71.22 0 Comment
drt2202 < 20 12/29/2011 Outperform 5Y $5.94 +33.16% +68.05% -34.88 0 Comment
CaptainVegetable < 20 8/5/2011 Outperform 5Y $7.14 +10.78% +73.09% -62.31 0 Comment
pobeda79 33.91 6/20/2011 Outperform 5Y $6.90 +14.64% +66.21% -51.58 0 Comment
amsteinberg86 < 20 5/31/2011 Outperform 3Y $8.64 -8.45% +56.16% -64.61 0 Comment
codyjr002 98.11 5/27/2011 Outperform 5Y $8.64 -8.45% +57.65% -66.10 0 Comment
Thleter 36.53 5/24/2011 Outperform 1Y $8.10 -2.35% +59.48% -61.82 1 Comment
ag77840 23.61 5/18/2011 Outperform 5Y $8.61 -8.13% +56.85% -64.98 0 Comment
Doggity 70.27 5/17/2011 Outperform 5Y $8.64 -8.45% +58.61% -67.06 0 Comment
Euro247 36.13 5/13/2011 Outperform 5Y $8.79 -10.01% +57.21% -67.22 0 Comment
inouye 67.90 5/3/2011 Outperform 1Y $8.52 -7.16% +55.25% -62.41 0 Comment
NVTreasureHunter 29.00 4/27/2011 Outperform NS $9.00 -12.11% +55.84% -67.95 0 Comment
Squeege1981 52.56 4/18/2011 Outperform 5Y $8.64 -8.45% +61.16% -69.61 0 Comment
reachmygoals1 < 20 4/11/2011 Outperform 3M $8.94 -11.52% +58.24% -69.76 0 Comment
limeonaire 99.11 4/4/2011 Outperform 5Y $9.00 -12.11% +57.73% -69.84 0 Comment
ajhers2 23.22 3/25/2011 Outperform 5Y $8.46 -6.50% +59.63% -66.13 0 Comment
lombardy 28.96 3/22/2011 Outperform 5Y $7.62 +3.81% +62.24% -58.44 0 Comment
binyalazar < 20 3/10/2011 Outperform 5Y $8.99 -12.05% +61.17% -73.23 0 Comment
WorldOnFire 28.56 2/23/2011 Outperform 3W $8.70 -9.08% +59.74% -68.82 0 Comment
HackInvestor < 20 2/22/2011 Outperform 5Y $9.12 -13.27% +58.10% -71.37 0 Comment
cheaply 22.41 2/10/2011 Outperform 1Y $11.16 -29.12% +59.92% -89.04 1 Comment
phineas333 30.54 2/10/2011 Outperform 5Y $11.04 -28.35% +59.92% -88.28 0 Comment
Cjbrat1 29.33 1/10/2011 Outperform 5Y $12.36 -36.00% +66.27% -102.27 0 Comment
atlasbooks 88.79 1/4/2011 Outperform 3M $12.96 -38.97% +65.29% -104.25 0 Comment
FinanceGuy58 57.94 12/20/2010 Outperform 5Y $13.14 -39.80% +68.85% -108.66 0 Comment
Okcfirefighter < 20 12/17/2010 Outperform 5Y $12.72 -37.81% +69.26% -107.08 0 Comment
Results 1 - 99 of 192 : 1 2 Next »

Featured Broker Partners


Advertisement